Time;durP1;ratioP1;P1;durP2;ratioP2;P2;SDS_P1;SDS_P2;PMS_P1;PMS_P2;Temp;Humidity;BMP_temperature;BMP_pressure;BME280_temperature;BME280_humidity;BME280_pressure;Samples;Min_cycle;Max_cycle;Signal;HPM_P1;HPM_P2
2022/09/19 00:02:00;;;;;;;;;;;16.00;47.00;;;11.77;56.88;95631.94;4991182;28;19955;-48
2022/09/19 00:04:32;;;;;;;;;;;16.00;47.00;;;11.76;56.79;95628.47;4988912;28;20329;-47
2022/09/19 00:07:01;;;;;;;;;;;16.00;47.00;;;11.73;57.47;95629.00;4971685;28;19913;-46
2022/09/19 00:09:33;;;;;;;;;;;16.00;47.00;;;11.74;57.59;95630.59;4986316;28;19916;-48
2022/09/19 00:12:02;;;;;;;;;;;16.00;47.00;;;11.73;57.11;95630.88;4990369;28;19910;-47
2022/09/19 00:14:34;;;;;;;;;;;15.90;47.00;;;11.66;57.25;95633.84;4974969;28;19917;-47
2022/09/19 00:17:07;;;;;;;;;;;15.90;47.00;;;11.68;58.05;95634.34;4971525;28;19910;-46
2022/09/19 00:19:36;;;;;;;;;;;15.90;47.00;;;11.61;57.61;95630.38;4969710;28;20765;-47
2022/09/19 00:22:05;;;;;;;;;;;15.90;47.10;;;11.60;58.23;95631.44;4973074;28;20055;-48
2022/09/19 00:24:49;;;;;;;;;;;15.90;47.10;;;11.60;58.05;95631.44;4989846;28;19962;-48
2022/09/19 00:27:38;;;;;;;;;;;15.80;47.20;;;11.55;58.50;95621.56;4991194;28;19913;-48
2022/09/19 00:30:04;;;;;;;;;;;15.90;47.30;;;11.55;58.77;95622.38;4978341;28;20005;-48
2022/09/19 00:32:31;;;;;;;;;;;15.90;47.30;;;11.53;58.64;95624.53;4970831;28;20341;-47
2022/09/19 00:35:00;;;;;;;;;;;15.80;47.30;;;11.52;59.15;95619.44;4981957;28;19916;-46
2022/09/19 00:37:33;;;;;;;;;;;15.80;47.40;;;11.47;58.72;95611.44;4991119;28;19910;-47
2022/09/19 00:40:02;;;;;;;;;;;15.80;47.40;;;11.45;58.97;95610.94;4988718;28;19959;-46
2022/09/19 00:42:29;;;;;;;;;;;15.80;47.40;;;11.45;58.97;95611.72;4977814;28;19910;-47
2022/09/19 00:45:03;;;;;;;;;;;15.80;47.50;;;11.49;59.04;95615.44;4983845;28;19957;-48
2022/09/19 00:47:47;;;;;;;;;;;15.70;47.50;;;11.44;59.46;95623.47;4992505;28;19963;-47
2022/09/19 00:50:27;;;;;;;;;;;15.70;47.60;;;11.48;59.77;95621.06;4991697;28;19917;-48
2022/09/19 00:53:19;;;;;;;;;;;15.80;47.70;;;11.44;59.86;95635.97;4992792;28;19956;-47
2022/09/19 00:55:45;;;;;;;;;;;15.70;47.70;;;11.41;60.31;95624.00;4982024;28;19909;-48
2022/09/19 00:58:43;;;;;;;;;;;15.70;47.70;;;11.42;60.58;95635.47;4992480;28;19910;-47
2022/09/19 01:01:10;;;;;;;;;;;15.70;47.80;;;11.44;60.62;95641.31;4988483;28;19920;-48
2022/09/19 01:03:35;;;;;;;;;;;15.70;47.80;;;11.40;60.80;95642.94;4986750;28;20389;-46
2022/09/19 01:06:40;;;;;;;;;;;15.70;47.90;;;11.37;61.31;95638.13;4980099;28;19972;-47
2022/09/19 01:09:24;;;;;;;;;;;15.70;47.90;;;11.37;61.54;95633.59;4985385;28;19913;-50
2022/09/19 01:12:17;;;;;;;;;;;15.60;47.90;;;11.31;61.97;95640.81;4993179;28;19909;-48
2022/09/19 01:15:28;;;;;;;;;;;15.60;48.00;;;11.23;62.66;95649.34;4994454;28;19909;-49
2022/09/19 01:18:05;;;;;;;;;;;15.60;48.70;;;11.23;62.96;95654.66;4993078;28;20004;-45
2022/09/19 01:21:37;;;;;;;;;;;15.50;48.20;;;11.23;63.22;95659.19;4973119;28;19909;-48
2022/09/19 01:25:01;;;;;;;;;;;15.50;48.90;;;11.13;63.42;95670.66;4990841;28;19909;-47
2022/09/19 01:28:08;;;;;;;;;;;15.50;48.40;;;11.09;64.35;95670.41;4916316;29;19954;-48
2022/09/19 01:31:21;;;;;;;;;;;15.40;48.40;;;11.07;64.22;95669.06;4933448;29;19914;-47
2022/09/19 01:34:18;;;;;;;;;;;15.40;48.50;;;11.05;64.57;95663.19;4993612;28;19910;-49
2022/09/19 01:36:52;;;;;;;;;;;15.40;48.70;;;10.96;64.84;95665.56;4978903;28;19914;-48
2022/09/19 01:39:24;;;;;;;;;;;15.30;48.70;;;10.91;65.01;95662.13;4979425;28;20387;-50
2022/09/19 01:41:53;;;;;;;;;;;15.30;48.80;;;10.92;65.03;95669.84;4990485;28;20381;-53
2022/09/19 01:44:23;;;;;;;;;;;15.30;48.80;;;10.90;65.56;95661.28;4973972;28;20001;-49
2022/09/19 01:47:16;;;;;;;;;;;15.30;48.90;;;10.91;65.27;95668.25;4963358;28;19928;-51
2022/09/19 01:50:25;;;;;;;;;;;15.20;49.00;;;10.85;65.39;95666.63;4974141;28;19997;-47
2022/09/19 01:53:53;;;;;;;;;;;15.20;49.10;;;10.78;65.75;95676.72;4984738;28;19916;-47
2022/09/19 01:57:15;;;;;;;;;;;15.10;49.10;;;10.81;65.71;95676.19;4968454;28;20372;-47
2022/09/19 02:00:09;;;;;;;;;;;15.10;49.30;;;10.78;66.04;95674.88;4992143;28;19920;-49
2022/09/19 02:02:37;;;;;;;;;;;15.10;49.40;;;10.78;66.17;95671.38;4974251;28;19983;-47
2022/09/19 02:05:32;;;;;;;;;;;15.00;49.40;;;10.75;66.14;95680.72;4979452;28;19960;-46
2022/09/19 02:08:20;;;;;;;;;;;15.00;49.50;;;10.69;67.10;95670.31;4973707;28;19910;-47
2022/09/19 02:11:14;;;;;;;;;;;15.00;49.70;;;10.68;66.95;95674.03;4981922;28;19935;-44
2022/09/19 02:13:49;;;;;;;;;;;15.00;49.70;;;10.67;67.41;95673.25;4982133;28;20012;-45
2022/09/19 02:16:30;;;;;;;;;;;14.90;49.70;;;10.60;67.31;95670.03;4987273;28;19913;-48
2022/09/19 02:19:36;;;;;;;;;;;14.90;49.70;;;10.57;67.70;95678.53;4972392;28;20015;-46
2022/09/19 02:22:34;;;;;;;;;;;14.90;49.80;;;10.51;67.63;95672.41;4980622;28;22512;-44
2022/09/19 02:25:08;;;;;;;;;;;14.90;49.90;;;10.52;67.45;95673.19;4970006;28;19910;-44
2022/09/19 02:28:21;;;;;;;;;;;14.80;49.90;;;10.50;67.92;95678.78;4972550;28;20433;-44
2022/09/19 02:30:49;;;;;;;;;;;14.80;50.00;;;10.48;68.36;95672.13;4971959;28;19998;-48
2022/09/19 02:33:19;;;;;;;;;;;14.80;50.00;;;10.46;68.31;95674.22;4956119;28;20389;-46
2022/09/19 02:35:58;;;;;;;;;;;14.80;50.10;;;10.39;68.11;95669.16;4988343;28;19963;-46
2022/09/19 02:39:02;;;;;;;;;;;14.80;50.20;;;10.35;67.66;95676.06;4992820;28;19944;-44
2022/09/19 02:42:00;;;;;;;;;;;14.80;50.20;;;10.37;68.11;95680.09;4945166;28;19909;-44
2022/09/19 02:44:52;;;;;;;;;;;14.70;50.30;;;10.33;68.32;95686.97;4958408;28;19917;-43
2022/09/19 02:47:54;;;;;;;;;;;14.70;50.30;;;10.29;68.39;95682.44;4976531;28;20330;-44
2022/09/19 02:50:36;;;;;;;;;;;14.70;50.40;;;10.25;68.58;95682.13;4990563;28;19909;-44
2022/09/19 02:53:12;;;;;;;;;;;14.60;50.40;;;10.25;68.42;95684.78;4990390;28;20343;-46
2022/09/19 02:55:47;;;;;;;;;;;14.60;50.50;;;10.23;68.74;95684.25;4968599;28;19922;-44
2022/09/19 02:58:22;;;;;;;;;;;14.60;50.50;;;10.20;68.95;95685.56;4968703;28;19909;-44
2022/09/19 03:01:06;;;;;;;;;;;14.60;50.60;;;10.18;69.02;95681.53;4955477;28;20340;-51
2022/09/19 03:04:19;;;;;;;;;;;14.60;50.60;;;10.17;69.37;95685.28;4971828;28;20292;-44
2022/09/19 03:07:16;;;;;;;;;;;14.60;50.60;;;10.16;69.25;95691.66;4971365;28;20299;-44
2022/09/19 03:09:53;;;;;;;;;;;14.50;50.70;;;10.12;70.01;95687.91;4971038;28;19910;-47
2022/09/19 03:12:34;;;;;;;;;;;14.50;50.80;;;10.08;69.70;95692.16;4952165;28;19913;-43
2022/09/19 03:15:00;;;;;;;;;;;14.50;50.80;;;10.09;70.07;95696.41;4981233;28;20064;-44
2022/09/19 03:17:37;;;;;;;;;;;14.50;50.80;;;10.07;70.07;95701.19;4972889;28;20361;-45
2022/09/19 03:20:04;;;;;;;;;;;14.50;50.90;;;10.04;70.01;95702.50;4963347;28;19910;-44
2022/09/19 03:22:30;;;;;;;;;;;14.50;50.90;;;10.04;69.96;95704.38;4986102;28;19955;-49
2022/09/19 03:24:58;;;;;;;;;;;14.50;51.00;;;10.00;69.45;95708.59;4971347;28;20004;-44
2022/09/19 03:27:26;;;;;;;;;;;14.40;51.00;;;9.99;69.43;95707.00;4972822;28;19914;-44
2022/09/19 03:29:52;;;;;;;;;;;14.40;51.00;;;9.99;69.45;95699.00;4982058;28;20384;-44
2022/09/19 03:32:17;;;;;;;;;;;14.40;51.10;;;9.98;69.70;95706.19;4987529;28;19909;-49
2022/09/19 03:34:46;;;;;;;;;;;14.40;51.10;;;9.96;69.76;95705.66;4991332;28;19945;-44
2022/09/19 03:37:17;;;;;;;;;;;14.40;51.20;;;9.98;70.20;95708.06;4975996;28;28411;-48
2022/09/19 03:39:45;;;;;;;;;;;14.40;51.30;;;9.96;70.22;95705.66;4971829;28;19910;-49
2022/09/19 03:42:11;;;;;;;;;;;14.30;51.20;;;9.95;70.39;95709.38;4991735;28;20353;-43
2022/09/19 03:44:36;;;;;;;;;;;14.30;51.30;;;9.92;70.28;95708.03;4974435;28;19913;-44
2022/09/19 03:47:02;;;;;;;;;;;14.40;51.40;;;9.93;70.26;95712.31;4989557;28;19949;-44
2022/09/19 03:49:30;;;;;;;;;;;14.30;51.40;;;9.94;70.29;95719.22;4989527;28;19915;-53
2022/09/19 03:51:59;;;;;;;;;;;14.30;51.40;;;9.92;70.67;95726.66;4976712;28;19921;-44
2022/09/19 03:54:29;;;;;;;;;;;14.30;51.40;;;9.94;70.49;95731.72;4982167;28;20012;-44
2022/09/19 03:57:01;;;;;;;;;;;14.30;51.50;;;9.93;70.83;95727.44;4970968;28;19917;-44
2022/09/19 03:59:27;;;;;;;;;;;14.30;51.60;;;9.94;71.16;95737.84;4973623;28;20020;-44
2022/09/19 04:01:54;;;;;;;;;;;14.30;51.60;;;9.94;71.32;95735.19;4972074;28;20000;-43
2022/09/19 04:04:21;;;;;;;;;;;14.30;51.60;;;9.95;71.39;95728.78;4971600;28;20304;-49
2022/09/19 04:06:48;;;;;;;;;;;14.30;51.60;;;9.94;71.20;95731.72;4970025;28;19922;-45
2022/09/19 04:09:17;;;;;;;;;;;14.30;51.70;;;9.91;71.50;95730.38;4969833;28;19963;-44
2022/09/19 04:11:45;;;;;;;;;;;14.30;51.70;;;9.90;71.44;95730.63;4989406;28;19909;-44
2022/09/19 04:14:17;;;;;;;;;;;14.30;51.70;;;9.85;71.05;95730.59;4977405;28;19910;-44
2022/09/19 04:16:49;;;;;;;;;;;14.30;51.70;;;9.84;71.83;95732.47;4972213;28;19910;-43
2022/09/19 04:19:18;;;;;;;;;;;14.30;51.70;;;9.83;71.88;95732.72;4971410;28;19949;-43
2022/09/19 04:21:44;;;;;;;;;;;14.30;51.80;;;9.81;71.83;95745.44;4976182;28;19993;-45
2022/09/19 04:24:16;;;;;;;;;;;14.30;51.80;;;9.78;72.11;95740.63;4978599;28;19917;-44
2022/09/19 04:26:49;;;;;;;;;;;14.30;51.80;;;9.74;72.27;95740.34;4978565;28;19914;-43
2022/09/19 04:29:15;;;;;;;;;;;14.20;51.80;;;9.70;72.58;95745.38;4985771;28;19910;-47
2022/09/19 04:31:42;;;;;;;;;;;14.20;51.90;;;9.66;73.14;95754.94;4960788;28;19953;-46
2022/09/19 04:34:14;;;;;;;;;;;14.10;51.90;;;9.65;72.77;95758.66;4980558;28;19917;-44
2022/09/19 04:36:41;;;;;;;;;;;14.10;52.00;;;9.64;73.04;95761.56;4985851;28;19910;-44
2022/09/19 04:39:16;;;;;;;;;;;14.10;52.10;;;9.60;73.34;95763.94;4976539;28;20047;-43
2022/09/19 04:41:42;;;;;;;;;;;14.10;52.20;;;9.60;73.75;95763.13;4979460;28;19910;-43
2022/09/19 04:44:13;;;;;;;;;;;14.00;52.20;;;9.59;74.02;95764.16;4976726;28;20300;-44
2022/09/19 04:46:46;;;;;;;;;;;14.00;52.20;;;9.57;73.69;95766.28;4984940;28;20351;-44
2022/09/19 04:49:18;;;;;;;;;;;14.00;52.30;;;9.55;74.05;95763.06;4996299;28;20281;-43
2022/09/19 04:51:45;;;;;;;;;;;14.00;52.40;;;9.53;74.47;95758.03;4997391;28;20004;-43
2022/09/19 04:54:14;;;;;;;;;;;14.00;52.40;;;9.53;74.65;95766.00;4987558;28;20321;-46
2022/09/19 04:56:48;;;;;;;;;;;14.00;52.40;;;9.50;74.97;95762.00;4977830;28;19920;-43
2022/09/19 04:59:14;;;;;;;;;;;14.00;52.40;;;9.47;75.01;95764.34;4989312;28;19909;-44
2022/09/19 05:01:46;;;;;;;;;;;14.00;52.50;;;9.47;75.20;95762.50;4996390;28;19909;-43
2022/09/19 05:04:16;;;;;;;;;;;14.00;53.10;;;9.47;75.36;95767.00;4996727;28;20430;-45
2022/09/19 05:06:48;;;;;;;;;;;14.00;52.60;;;9.36;75.77;95774.06;4996300;28;19917;-43
2022/09/19 05:09:13;;;;;;;;;;;13.90;52.60;;;9.33;76.21;95771.91;4985095;28;20395;-43
2022/09/19 05:11:49;;;;;;;;;;;13.90;52.70;;;9.31;76.80;95782.03;4992557;28;19910;-47
2022/09/19 05:14:15;;;;;;;;;;;13.90;52.80;;;9.33;76.50;95785.22;4984511;28;19909;-45
2022/09/19 05:16:50;;;;;;;;;;;13.90;52.80;;;9.26;76.60;95780.09;4966779;28;19916;-44
2022/09/19 05:19:17;;;;;;;;;;;13.80;52.90;;;9.27;77.27;95780.91;4981818;28;19917;-46
2022/09/19 05:21:44;;;;;;;;;;;13.80;53.00;;;9.29;76.83;95783.31;4976219;28;20024;-49
2022/09/19 05:24:10;;;;;;;;;;;13.80;53.10;;;9.28;76.97;95782.53;4997001;28;19913;-43
2022/09/19 05:26:45;;;;;;;;;;;13.80;53.10;;;9.27;77.03;95792.38;4979667;28;19917;-44
2022/09/19 05:29:17;;;;;;;;;;;13.80;53.20;;;9.27;77.00;95787.03;4978521;28;19992;-44
2022/09/19 05:31:46;;;;;;;;;;;13.80;53.20;;;9.30;77.25;95793.69;4996210;28;19909;-44
2022/09/19 05:34:18;;;;;;;;;;;13.80;53.30;;;9.29;77.33;95791.28;4991255;28;20295;-43
2022/09/19 05:36:47;;;;;;;;;;;13.80;53.30;;;9.27;77.12;95792.38;4994328;28;20386;-43
2022/09/19 05:39:16;;;;;;;;;;;13.80;53.40;;;9.27;77.10;95800.34;4994029;28;19948;-44
2022/09/19 05:41:45;;;;;;;;;;;13.80;53.40;;;9.30;77.53;95796.34;4979977;28;19953;-44
2022/09/19 05:44:13;;;;;;;;;;;13.80;53.40;;;9.29;77.13;95804.59;4996136;28;19909;-44
2022/09/19 05:46:43;;;;;;;;;;;13.80;53.50;;;9.31;77.29;95810.44;4991374;28;19965;-43
2022/09/19 05:49:09;;;;;;;;;;;13.80;53.50;;;9.31;77.20;95808.59;4993465;28;19948;-43
2022/09/19 05:51:38;;;;;;;;;;;13.90;53.50;;;9.32;76.88;95820.84;4992415;28;20404;-43
2022/09/19 05:54:13;;;;;;;;;;;13.90;53.50;;;9.34;76.77;95816.09;4951436;28;20000;-44
2022/09/19 05:56:42;;;;;;;;;;;13.90;53.50;;;9.39;77.28;95828.63;4956781;28;20406;-46
2022/09/19 05:59:08;;;;;;;;;;;14.00;53.60;;;9.42;78.07;95825.44;4983800;28;19913;-44
2022/09/19 06:01:39;;;;;;;;;;;14.00;53.60;;;9.45;76.75;95827.63;4993399;28;19928;-45
2022/09/19 06:04:08;;;;;;;;;;;14.10;53.60;;;9.46;77.48;95834.53;4992761;28;20048;-44
2022/09/19 06:06:36;;;;;;;;;;;14.10;53.50;;;9.47;77.55;95831.63;4975590;28;19917;-44
2022/09/19 06:09:05;;;;;;;;;;;14.10;53.60;;;9.49;77.74;95834.03;4972492;28;19917;-43
2022/09/19 06:11:31;;;;;;;;;;;14.20;53.60;;;9.50;77.05;95839.09;4985164;28;20381;-43
2022/09/19 06:14:14;;;;;;;;;;;14.20;53.60;;;9.57;77.27;95836.25;4982715;28;19987;-45
2022/09/19 06:16:49;;;;;;;;;;;14.20;53.60;;;9.58;77.24;95840.50;4972485;28;19910;-43
2022/09/19 06:19:16;;;;;;;;;;;14.30;53.70;;;9.60;76.62;95835.75;4973683;28;19910;-48
2022/09/19 06:21:41;;;;;;;;;;;14.30;53.60;;;9.59;76.70;95844.78;4972234;28;19910;-52
2022/09/19 06:24:10;;;;;;;;;;;14.40;53.60;;;9.65;76.70;95841.13;4991806;28;20301;-46
2022/09/19 06:26:36;;;;;;;;;;;14.40;53.60;;;9.75;76.29;95850.25;4972413;28;19928;-45
2022/09/19 06:29:06;;;;;;;;;;;14.50;53.60;;;9.80;75.69;95842.28;4979822;28;19909;-44
2022/09/19 06:31:32;;;;;;;;;;;14.60;53.50;;;9.86;75.64;95843.94;4992903;28;19909;-45
2022/09/19 06:34:06;;;;;;;;;;;14.70;53.50;;;9.91;75.61;95850.13;5006779;28;19932;-49
2022/09/19 06:36:32;;;;;;;;;;;14.80;53.40;;;10.03;75.41;95844.63;4976067;28;20012;-45
2022/09/19 06:39:00;;;;;;;;;;;14.90;53.40;;;10.08;75.30;95847.31;4992383;28;19948;-44
2022/09/19 06:41:26;;;;;;;;;;;14.90;53.30;;;10.16;74.68;95848.72;4991924;28;19913;-44
2022/09/19 06:43:52;;;;;;;;;;;15.10;53.30;;;10.25;74.38;95851.69;4975972;28;19910;-43
2022/09/19 06:46:21;;;;;;;;;;;15.20;53.20;;;10.42;74.17;95860.38;4956237;28;19914;-45
2022/09/19 06:48:49;;;;;;;;;;;15.30;53.10;;;10.56;73.75;95863.38;4972906;28;19914;-48
2022/09/19 06:51:15;;;;;;;;;;;15.50;53.10;;;10.64;72.82;95860.25;4973036;28;19913;-47
2022/09/19 06:53:41;;;;;;;;;;;15.70;53.00;;;10.71;72.11;95862.66;4983536;28;19917;-44
2022/09/19 06:56:09;;;;;;;;;;;15.90;52.90;;;10.82;71.57;95870.47;4973263;28;19914;-43
2022/09/19 06:58:35;;;;;;;;;;;16.00;52.70;;;10.96;71.84;95873.47;4940677;28;20502;-44
2022/09/19 07:01:04;;;;;;;;;;;16.20;52.50;;;11.09;70.45;95878.34;4971693;28;19913;-44
2022/09/19 07:03:30;;;;;;;;;;;16.40;52.40;;;11.26;70.02;95874.66;4971481;28;19914;-45
2022/09/19 07:05:59;;;;;;;;;;;16.50;52.30;;;11.31;70.29;95872.81;4988850;28;19921;-43
2022/09/19 07:08:28;;;;;;;;;;;16.50;52.20;;;11.44;69.49;95882.19;4974329;28;19960;-44
2022/09/19 07:10:56;;;;;;;;;;;16.60;52.20;;;11.44;69.21;95882.19;4967906;28;19932;-44
2022/09/19 07:13:28;;;;;;;;;;;16.60;52.10;;;11.47;69.28;95883.50;4985641;28;20024;-44
2022/09/19 07:15:56;;;;;;;;;;;16.70;52.00;;;11.50;69.15;95885.66;4973114;28;20439;-43
2022/09/19 07:18:23;;;;;;;;;;;16.70;52.00;;;11.56;69.09;95893.44;4990759;28;19913;-48
2022/09/19 07:20:49;;;;;;;;;;;16.70;51.90;;;11.70;69.00;95898.25;4992039;28;19913;-44
2022/09/19 07:23:30;;;;;;;;;;;16.80;51.80;;;11.78;68.01;95900.41;4987177;28;19909;-44
2022/09/19 07:26:08;;;;;;;;;;;17.00;51.90;;;11.75;67.85;95898.25;4992110;28;19913;-46
2022/09/19 07:28:34;;;;;;;;;;;17.00;51.70;;;11.69;67.66;95901.97;4989019;28;19909;-43
2022/09/19 07:31:03;;;;;;;;;;;17.10;51.50;;;11.79;68.51;95902.03;4986036;28;19949;-47
2022/09/19 07:33:35;;;;;;;;;;;17.10;51.40;;;11.82;67.73;95910.28;4971123;28;19925;-44
2022/09/19 07:36:11;;;;;;;;;;;17.20;51.40;;;11.94;67.72;95911.94;4973344;28;19916;-44
2022/09/19 07:38:37;;;;;;;;;;;17.30;51.40;;;11.98;66.19;95921.03;4973994;28;19923;-45
2022/09/19 07:41:03;;;;;;;;;;;17.30;51.30;;;11.97;63.27;95909.56;4982140;28;19945;-44
2022/09/19 07:43:32;;;;;;;;;;;17.30;51.20;;;11.99;64.77;95915.41;4970851;28;20004;-44
2022/09/19 07:46:03;;;;;;;;;;;17.30;51.10;;;11.95;63.25;95916.22;4973035;28;19921;-44
2022/09/19 07:48:36;;;;;;;;;;;17.20;51.00;;;11.93;63.16;95924.47;4989299;28;20331;-44
2022/09/19 07:51:05;;;;;;;;;;;17.30;51.00;;;12.05;63.59;95921.56;4970956;28;20484;-44
2022/09/19 07:53:36;;;;;;;;;;;17.30;50.80;;;12.09;64.00;95924.50;4967243;28;20008;-44
2022/09/19 07:56:14;;;;;;;;;;;17.40;50.70;;;12.06;62.53;95930.38;4990814;28;19956;-44
2022/09/19 07:58:45;;;;;;;;;;;17.40;50.50;;;12.15;62.72;95934.94;4983946;28;19916;-46
2022/09/19 08:01:14;;;;;;;;;;;17.50;50.30;;;12.39;63.39;95934.41;4972166;28;19910;-44
2022/09/19 08:03:44;;;;;;;;;;;17.80;50.20;;;12.83;61.41;95931.19;4986764;28;19960;-46
2022/09/19 08:06:09;;;;;;;;;;;18.30;50.00;;;13.29;59.42;95933.78;4989770;28;20419;-49
2022/09/19 08:08:36;;;;;;;;;;;18.90;49.70;;;13.69;55.20;95935.47;4989684;28;19945;-44
2022/09/19 08:11:05;;;;;;;;;;;19.40;49.40;;;13.93;51.81;95932.94;4990973;28;20257;-47
2022/09/19 08:13:30;;;;;;;;;;;20.00;48.80;;;14.09;52.00;95939.00;4989719;28;19996;-48
2022/09/19 08:15:57;;;;;;;;;;;20.20;48.50;;;14.04;51.60;95933.66;4977456;28;20366;-48
2022/09/19 08:18:29;;;;;;;;;;;20.20;48.20;;;13.90;52.62;95941.53;4982266;28;20049;-48
2022/09/19 08:20:58;;;;;;;;;;;20.00;47.90;;;13.88;52.64;95939.13;4972164;28;19940;-47
2022/09/19 08:23:39;;;;;;;;;;;19.80;47.80;;;13.97;53.24;95947.38;4989196;28;19940;-51
2022/09/19 08:26:10;;;;;;;;;;;19.60;47.80;;;14.40;52.82;95947.63;5006150;28;19918;-48
2022/09/19 08:28:39;;;;;;;;;;;20.00;47.50;;;14.73;52.81;95953.31;4989836;28;19917;-48
2022/09/19 08:31:04;;;;;;;;;;;20.50;47.40;;;14.86;51.34;95949.97;4972908;28;20013;-47
2022/09/19 08:33:33;;;;;;;;;;;20.60;47.30;;;14.89;51.75;95945.94;4971662;28;20004;-46
2022/09/19 08:36:03;;;;;;;;;;;20.70;47.20;;;14.94;50.85;95954.69;4982315;28;19909;-49
2022/09/19 08:38:32;;;;;;;;;;;20.80;47.00;;;14.99;51.62;95956.56;4969399;28;19910;-50
2022/09/19 08:41:45;;;;;;;;;;;20.80;46.80;;;15.11;52.07;95956.97;4972402;28;19909;-50
2022/09/19 08:44:21;;;;;;;;;;;20.90;46.70;;;15.23;50.40;95954.69;4971007;28;20284;-48
2022/09/19 08:46:55;;;;;;;;;;;21.10;46.50;;;15.04;49.46;95954.63;4958776;28;19918;-49
2022/09/19 08:50:09;;;;;;;;;;;21.20;46.10;;;15.04;49.37;95957.31;4989387;28;19909;-50
2022/09/19 08:52:49;;;;;;;;;;;21.20;45.70;;;14.54;51.98;95962.03;4961921;28;20363;-47
2022/09/19 08:55:23;;;;;;;;;;;21.20;45.60;;;14.50;51.77;95962.81;4971028;28;19914;-48
2022/09/19 08:58:00;;;;;;;;;;;21.10;45.50;;;14.64;51.24;95961.16;4969749;28;19917;-49
2022/09/19 09:00:45;;;;;;;;;;;21.10;45.50;;;14.64;51.68;95965.72;4955263;28;20056;-49
2022/09/19 09:03:47;;;;;;;;;;;21.10;45.50;;;14.89;50.00;95973.53;4954391;28;19910;-48
2022/09/19 09:06:53;;;;;;;;;;;21.00;45.40;;;15.16;48.71;95951.53;4974697;28;19961;-48
2022/09/19 09:10:02;;;;;;;;;;;21.20;45.30;;;15.50;48.44;95962.16;4956797;28;19963;-46
2022/09/19 09:12:50;;;;;;;;;;;21.50;45.00;;;15.93;46.36;95961.41;4993887;28;20031;-48
2022/09/19 09:15:58;;;;;;;;;;;22.00;44.70;;;16.45;46.07;95956.88;4986019;28;19913;-50
2022/09/19 09:19:04;;;;;;;;;;;22.40;44.30;;;16.63;44.62;95960.66;4981264;28;19916;-50
2022/09/19 09:22:18;;;;;;;;;;;22.70;44.10;;;16.90;45.17;95967.25;4993105;28;20349;-49
2022/09/19 09:25:20;;;;;;;;;;;22.90;43.90;;;16.86;43.69;95967.84;4923065;29;19910;-52
2022/09/19 09:28:33;;;;;;;;;;;23.10;43.50;;;17.14;45.05;95959.81;4994216;28;20017;-50
2022/09/19 09:31:41;;;;;;;;;;;23.50;43.10;;;17.55;43.24;95962.53;4973584;28;20003;-48
2022/09/19 09:34:58;;;;;;;;;;;24.10;42.70;;;17.67;43.17;95959.34;4960364;28;20020;-48
2022/09/19 09:37:36;;;;;;;;;;;24.50;42.30;;;17.48;42.73;95950.56;4937315;28;19916;-49
2022/09/19 09:43:20;;;;;;;;;;;24.20;41.90;;;17.35;43.24;95958.34;4952540;28;20428;-48
2022/09/19 09:45:50;;;;;;;;;;;24.20;41.70;;;17.52;42.48;95951.59;4957631;28;19924;-47
2022/09/19 09:48:45;;;;;;;;;;;24.80;41.40;;;17.63;42.07;95955.66;4938806;28;19924;-50
2022/09/19 09:51:50;;;;;;;;;;;25.30;40.80;;;18.04;41.01;95952.94;4940046;28;19960;-50
2022/09/19 09:57:58;;;;;;;;;;;26.50;40.00;;;19.03;41.75;95949.56;4971966;28;20068;-48
2022/09/19 10:04:01;;;;;;;;;;;28.00;39.50;;;20.34;33.96;95951.59;4958468;28;19917;-50
2022/09/19 10:07:24;;;;;;;;;;;28.70;38.90;;;20.96;32.36;95953.94;4967632;28;19996;-53
2022/09/19 10:09:58;;;;;;;;;;;29.40;38.10;;;20.66;34.38;95953.03;4973276;28;20284;-49
2022/09/19 10:12:54;;;;;;;;;;;29.80;37.00;;;21.26;33.87;95948.59;4974019;28;19909;-51
2022/09/19 10:15:24;;;;;;;;;;;30.10;36.80;;;21.64;32.65;95947.84;4981485;28;19944;-53
2022/09/19 10:18:07;;;;;;;;;;;30.40;36.30;;;22.13;31.75;95949.00;4987551;28;20394;-51
2022/09/19 10:20:51;;;;;;;;;;;30.70;36.10;;;22.32;31.86;95948.56;4973498;28;19909;-50
2022/09/19 10:23:30;;;;;;;;;;;31.00;36.00;;;22.62;30.84;95943.84;4960092;28;19948;-49
2022/09/19 10:26:26;;;;;;;;;;;31.10;35.10;;;22.42;30.35;95946.59;4956234;28;19952;-50
2022/09/19 10:28:59;;;;;;;;;;;31.20;34.80;;;21.81;31.34;95947.75;4952737;28;19909;-51
2022/09/19 10:31:39;;;;;;;;;;;30.80;34.60;;;21.89;31.57;95946.91;4979797;28;20273;-51
2022/09/19 10:34:32;;;;;;;;;;;30.60;34.50;;;22.15;30.83;95944.00;4977411;28;19920;-55
2022/09/19 10:37:14;;;;;;;;;;;30.60;34.20;;;21.71;32.78;95937.28;4978871;28;20289;-52
2022/09/19 10:39:48;;;;;;;;;;;30.60;34.00;;;21.08;30.98;95936.22;4980154;28;19910;-54
2022/09/19 10:42:36;;;;;;;;;;;30.60;33.80;;;21.69;32.59;95931.41;4974864;28;20289;-50
2022/09/19 10:45:34;;;;;;;;;;;30.70;33.70;;;21.78;30.50;95926.72;4972030;28;19909;-51
2022/09/19 10:48:26;;;;;;;;;;;30.70;33.70;;;21.62;29.87;95934.63;4978820;28;20262;-53
2022/09/19 10:50:59;;;;;;;;;;;30.40;33.40;;;21.20;32.03;95937.16;4978999;28;19917;-49
2022/09/19 10:53:35;;;;;;;;;;;29.70;33.60;;;21.22;31.96;95934.13;4990613;28;19910;-50
2022/09/19 10:56:22;;;;;;;;;;;29.30;33.60;;;21.25;31.18;95939.69;4983097;28;19909;-52
2022/09/19 10:59:02;;;;;;;;;;;29.30;33.40;;;21.49;32.07;95938.34;4972591;28;20401;-48
2022/09/19 11:02:25;;;;;;;;;;;29.60;33.30;;;21.74;31.25;95933.13;4971845;28;20015;-49
2022/09/19 11:05:09;;;;;;;;;;;30.00;33.20;;;21.58;30.31;95935.59;4974699;28;20333;-50
2022/09/19 11:08:02;;;;;;;;;;;29.90;33.80;;;21.89;29.67;95930.63;4991181;28;19924;-50
2022/09/19 11:10:41;;;;;;;;;;;30.00;32.90;;;22.15;31.23;95929.66;4989727;28;20426;-48
2022/09/19 11:13:23;;;;;;;;;;;30.40;33.40;;;22.33;29.53;95928.44;4988018;28;19917;-50
2022/09/19 11:15:49;;;;;;;;;;;30.80;32.40;;;22.52;28.84;95933.41;4972626;28;20262;-53
2022/09/19 11:18:46;;;;;;;;;;;31.20;32.10;;;22.94;29.18;95922.50;4984968;28;20488;-49
2022/09/19 11:22:16;;;;;;;;;;;31.70;31.90;;;23.24;27.71;95925.03;4971430;28;19914;-51
2022/09/19 11:25:06;;;;;;;;;;;32.00;31.70;;;23.28;28.81;95924.06;4956688;28;19909;-51
2022/09/19 11:27:53;;;;;;;;;;;32.40;31.50;;;23.11;28.67;95926.16;4972533;28;19917;-49
2022/09/19 11:30:40;;;;;;;;;;;32.60;31.20;;;23.22;29.33;95932.72;4978321;28;20361;-53
2022/09/19 11:33:35;;;;;;;;;;;32.90;30.60;;;23.73;26.94;95920.47;4980238;28;20376;-51
2022/09/19 11:36:34;;;;;;;;;;;33.20;30.40;;;23.15;28.19;95925.13;4985121;28;19949;-56
2022/09/19 11:39:55;;;;;;;;;;;33.50;30.20;;;23.51;27.96;95924.41;4970223;28;19941;-52
2022/09/19 11:43:12;;;;;;;;;;;33.60;30.00;;;23.78;26.92;95935.75;4973723;28;20125;-54
2022/09/19 11:46:23;;;;;;;;;;;33.60;30.00;;;24.21;28.97;95926.97;4971102;28;20400;-46
2022/09/19 11:49:10;;;;;;;;;;;33.80;29.80;;;23.89;27.69;95930.66;4991094;28;20399;-47
2022/09/19 11:52:08;;;;;;;;;;;34.10;30.20;;;23.67;27.53;95927.22;4991741;28;19920;-47
2022/09/19 11:55:01;;;;;;;;;;;34.40;29.60;;;23.73;27.88;95930.56;4972582;28;20281;-46
2022/09/19 11:58:18;;;;;;;;;;;34.40;29.40;;;23.54;27.55;95931.09;4980344;28;20395;-48
2022/09/19 12:01:09;;;;;;;;;;;34.10;29.40;;;22.92;29.79;95924.72;4971412;28;19917;-47
2022/09/19 12:04:08;;;;;;;;;;;33.50;29.50;;;22.40;28.24;95923.28;4970653;28;19910;-45
2022/09/19 12:07:04;;;;;;;;;;;32.70;29.50;;;22.26;29.54;95919.25;4970463;28;19918;-46
2022/09/19 12:10:19;;;;;;;;;;;32.10;29.60;;;22.39;30.43;95916.25;4971526;28;19909;-47
2022/09/19 12:13:15;;;;;;;;;;;31.30;29.70;;;21.91;29.61;95917.56;4986425;28;19910;-48
2022/09/19 12:15:51;;;;;;;;;;;30.30;29.90;;;21.42;28.88;95913.66;4990370;28;20012;-50
2022/09/19 12:18:55;;;;;;;;;;;29.40;30.00;;;20.64;32.87;95909.25;4983147;28;19990;-48
2022/09/19 12:21:25;;;;;;;;;;;28.50;30.00;;;19.64;34.36;95908.22;4934568;28;19909;-45
2022/09/19 12:27:48;;;;;;;;;;;27.00;30.40;;;19.04;36.70;95903.38;4991263;28;20303;-50
2022/09/19 12:30:22;;;;;;;;;;;26.40;30.80;;;19.41;33.71;95893.97;4955720;28;19910;-46